Time,TemperatureF,DewpointF,PressureIn,WindDirection,WindDirectionDegrees,WindSpeedMPH,WindSpeedGustMPH,Humidity,HourlyPrecipIn,Conditions,Clouds,dailyrainin,SoftwareType,DateUTC
2013-07-14 00:02:00,75.2,71.6,29.57,North,0,0.0,-999.9,89,-99.99,,,-99.99,,2013-07-14 04:02:00,
2013-07-14 00:04:00,75.2,71.6,29.57,North,0,0.0,-999.9,89,-99.99,,,-99.99,,2013-07-14 04:04:00,
2013-07-14 00:06:00,75.2,71.6,29.57,North,0,0.0,-999.9,89,-99.99,,,-99.99,,2013-07-14 04:06:00,
2013-07-14 00:08:00,75.2,71.6,29.57,North,0,0.0,-999.9,89,-99.99,,,-99.99,,2013-07-14 04:08:00,
2013-07-14 00:12:00,75.2,71.6,29.57,North,0,0.0,-999.9,89,-99.99,,,-99.99,,2013-07-14 04:12:00,
2013-07-14 00:18:00,75.2,71.6,29.57,North,0,0.0,-999.9,89,-99.99,,,-99.99,,2013-07-14 04:18:00,
2013-07-14 00:24:00,75.2,71.6,29.58,North,0,0.0,-999.9,89,-99.99,,,-99.99,,2013-07-14 04:24:00,
2013-07-14 00:30:00,75.2,71.6,29.58,North,0,0.0,-999.9,89,-99.99,,,-99.99,,2013-07-14 04:30:00,
2013-07-14 00:36:00,75.2,71.6,29.58,North,0,0.0,-999.9,89,-99.99,,,-99.99,,2013-07-14 04:36:00,
2013-07-14 00:42:00,75.2,73.4,29.58,North,0,0.0,-999.9,94,-99.99,,,-99.99,,2013-07-14 04:42:00,
2013-07-14 00:48:00,75.2,73.4,29.58,North,0,0.0,-999.9,94,-99.99,,,-99.99,,2013-07-14 04:48:00,
2013-07-14 00:54:00,75.2,71.6,29.59,North,0,0.0,-999.9,89,-99.99,,,-99.99,,2013-07-14 04:54:00,
2013-07-14 01:00:00,75.2,71.6,29.59,North,0,0.0,-999.9,89,-99.99,,,-99.99,,2013-07-14 05:00:00,
2013-07-14 01:06:00,75.2,71.6,29.59,North,0,0.0,-999.9,89,-99.99,,,-99.99,,2013-07-14 05:06:00,
2013-07-14 01:12:00,75.2,71.6,29.59,North,0,0.0,-999.9,89,-99.99,,,-99.99,,2013-07-14 05:12:00,
2013-07-14 01:18:00,75.2,71.6,29.59,North,0,0.0,-999.9,89,-99.99,,,-99.99,,2013-07-14 05:18:00,
2013-07-14 02:02:00,75.2,73.4,29.59,ESE,122,0.0,-999.9,94,-99.99,,,-99.99,,2013-07-14 06:02:00,
2013-07-14 02:08:00,75.2,73.4,29.59,ESE,122,0.0,-999.9,94,-99.99,,,-99.99,,2013-07-14 06:08:00,
2013-07-14 02:14:00,77.0,73.4,29.59,North,0,0.0,-999.9,89,-99.99,,,-99.99,,2013-07-14 06:14:00,
2013-07-14 02:20:00,77.0,73.4,29.59,North,0,0.0,-999.9,89,-99.99,,,-99.99,,2013-07-14 06:20:00,
2013-07-14 02:26:00,77.0,73.4,29.59,North,0,0.0,-999.9,89,-99.99,,,-99.99,,2013-07-14 06:26:00,
2013-07-14 02:32:00,77.0,73.4,29.59,North,0,0.0,-999.9,89,-99.99,,,-99.99,,2013-07-14 06:32:00,
2013-07-14 02:38:00,77.0,73.4,29.59,North,0,0.0,-999.9,89,-99.99,,,-99.99,,2013-07-14 06:38:00,
2013-07-14 02:44:00,77.0,73.4,29.60,North,0,0.0,-999.9,89,-99.99,,,-99.99,,2013-07-14 06:44:00,
2013-07-14 02:50:00,77.0,73.4,29.60,North,0,0.0,-999.9,89,-99.99,,,-99.99,,2013-07-14 06:50:00,
2013-07-14 02:56:00,77.0,73.4,29.60,North,0,0.0,-999.9,89,-99.99,,,-99.99,,2013-07-14 06:56:00,
2013-07-14 03:02:00,77.0,71.6,29.59,North,0,0.0,-999.9,83,-99.99,,,-99.99,,2013-07-14 07:02:00,
2013-07-14 03:08:00,77.0,71.6,29.59,North,0,0.0,-999.9,83,-99.99,,,-99.99,,2013-07-14 07:08:00,
2013-07-14 03:14:00,77.0,73.4,29.59,North,0,0.0,-999.9,89,-99.99,,,-99.99,,2013-07-14 07:14:00,
2013-07-14 03:20:00,77.0,73.4,29.59,North,0,0.0,-999.9,89,-99.99,,,-99.99,,2013-07-14 07:20:00,
2013-07-14 03:26:00,77.0,73.4,29.59,North,0,0.0,-999.9,89,-99.99,,,-99.99,,2013-07-14 07:26:00,
2013-07-14 03:32:00,77.0,73.4,29.60,SSW,201,0.0,-999.9,89,-99.99,,,-99.99,,2013-07-14 07:32:00,
2013-07-14 03:38:00,77.0,73.4,29.60,SSW,201,0.0,-999.9,89,-99.99,,,-99.99,,2013-07-14 07:38:00,
2013-07-14 03:44:00,77.0,73.4,29.60,South,179,1.2,-999.9,89,-99.99,,,-99.99,,2013-07-14 07:44:00,
2013-07-14 03:50:00,77.0,73.4,29.60,South,179,1.2,-999.9,89,-99.99,,,-99.99,,2013-07-14 07:50:00,
2013-07-14 03:56:00,75.2,73.4,29.60,North,0,0.0,-999.9,94,-99.99,,,-99.99,,2013-07-14 07:56:00,
2013-07-14 04:02:00,77.0,73.4,29.60,North,0,0.0,-999.9,89,-99.99,,,-99.99,,2013-07-14 08:02:00,
2013-07-14 04:08:00,77.0,73.4,29.60,North,0,0.0,-999.9,89,-99.99,,,-99.99,,2013-07-14 08:08:00,
2013-07-14 04:14:00,77.0,73.4,29.59,North,0,0.0,-999.9,89,-99.99,,,-99.99,,2013-07-14 08:14:00,
2013-07-14 04:20:00,77.0,73.4,29.59,North,0,0.0,-999.9,89,-99.99,,,-99.99,,2013-07-14 08:20:00,
2013-07-14 04:26:00,77.0,73.4,29.59,North,0,0.0,-999.9,89,-99.99,,,-99.99,,2013-07-14 08:26:00,
2013-07-14 04:32:00,77.0,73.4,29.59,North,0,0.0,-999.9,89,-99.99,,,-99.99,,2013-07-14 08:32:00,
2013-07-14 04:38:00,77.0,73.4,29.59,North,0,0.0,-999.9,89,-99.99,,,-99.99,,2013-07-14 08:38:00,
2013-07-14 04:44:00,77.0,73.4,29.59,North,0,0.0,-999.9,89,-99.99,,,-99.99,,2013-07-14 08:44:00,
2013-07-14 04:50:00,77.0,73.4,29.59,North,0,0.0,-999.9,89,-99.99,,,-99.99,,2013-07-14 08:50:00,
2013-07-14 04:56:00,75.2,71.6,29.60,North,0,0.0,-999.9,89,-99.99,,,-99.99,,2013-07-14 08:56:00,
2013-07-14 05:02:00,75.2,71.6,29.60,North,0,0.0,-999.9,89,-99.99,,,-99.99,,2013-07-14 09:02:00,
2013-07-14 05:08:00,75.2,71.6,29.60,North,0,0.0,-999.9,89,-99.99,,,-99.99,,2013-07-14 09:08:00,
2013-07-14 05:14:00,75.2,71.6,29.60,North,0,0.0,-999.9,89,-99.99,,,-99.99,,2013-07-14 09:14:00,
2013-07-14 05:20:00,75.2,71.6,29.60,North,0,0.0,-999.9,89,-99.99,,,-99.99,,2013-07-14 09:20:00,
2013-07-14 05:26:00,75.2,71.6,29.61,North,0,0.0,-999.9,89,-99.99,,,-99.99,,2013-07-14 09:26:00,
2013-07-14 05:32:00,75.2,71.6,29.61,North,0,0.0,-999.9,89,-99.99,,,-99.99,,2013-07-14 09:32:00,
2013-07-14 05:38:00,75.2,71.6,29.61,North,0,0.0,-999.9,89,-99.99,,,-99.99,,2013-07-14 09:38:00,
2013-07-14 05:44:00,75.2,73.4,29.61,North,0,0.0,-999.9,94,-99.99,,,-99.99,,2013-07-14 09:44:00,
2013-07-14 05:50:00,75.2,73.4,29.61,North,0,0.0,-999.9,94,-99.99,,,-99.99,,2013-07-14 09:50:00,
2013-07-14 05:56:00,75.2,73.4,29.61,North,6,1.2,-999.9,94,-99.99,,,-99.99,,2013-07-14 09:56:00,
2013-07-14 06:02:00,75.2,73.4,29.61,North,0,0.0,-999.9,94,-99.99,,,-99.99,,2013-07-14 10:02:00,
2013-07-14 06:08:00,75.2,73.4,29.61,North,0,0.0,-999.9,94,-99.99,,,-99.99,,2013-07-14 10:08:00,
2013-07-14 06:14:00,75.2,73.4,29.61,North,3,1.2,-999.9,94,-99.99,,,-99.99,,2013-07-14 10:14:00,
2013-07-14 06:20:00,75.2,73.4,29.61,North,3,1.2,-999.9,94,-99.99,,,-99.99,,2013-07-14 10:20:00,
2013-07-14 06:26:00,75.2,73.4,29.62,NW,320,1.2,-999.9,94,-99.99,,,-99.99,,2013-07-14 10:26:00,
2013-07-14 06:32:00,75.2,71.6,29.61,North,0,0.0,-999.9,89,-99.99,,,-99.99,,2013-07-14 10:32:00,
2013-07-14 06:38:00,75.2,71.6,29.61,North,0,0.0,-999.9,89,-99.99,,,-99.99,,2013-07-14 10:38:00,
2013-07-14 06:44:00,75.2,71.6,29.62,North,0,0.0,-999.9,89,-99.99,,,-99.99,,2013-07-14 10:44:00,
2013-07-14 06:50:00,75.2,71.6,29.62,North,0,0.0,-999.9,89,-99.99,,,-99.99,,2013-07-14 10:50:00,
2013-07-14 06:56:00,75.2,73.4,29.62,North,0,0.0,-999.9,94,-99.99,,,-99.99,,2013-07-14 10:56:00,
2013-07-14 07:02:00,77.0,73.4,29.62,NNW,333,3.5,-999.9,89,-99.99,,,-99.99,,2013-07-14 11:02:00,
2013-07-14 07:08:00,77.0,73.4,29.62,NNW,333,3.5,-999.9,89,-99.99,,,-99.99,,2013-07-14 11:08:00,
2013-07-14 07:14:00,77.0,73.4,29.62,North,356,1.2,-999.9,89,-99.99,,,-99.99,,2013-07-14 11:14:00,
2013-07-14 07:20:00,77.0,73.4,29.62,North,356,1.2,-999.9,89,-99.99,,,-99.99,,2013-07-14 11:20:00,
2013-07-14 07:26:00,78.8,75.2,29.62,NNW,328,2.3,-999.9,89,-99.99,,,-99.99,,2013-07-14 11:26:00,
2013-07-14 07:32:00,78.8,75.2,29.62,WNW,292,1.2,-999.9,89,-99.99,,,-99.99,,2013-07-14 11:32:00,
2013-07-14 07:38:00,78.8,75.2,29.62,WNW,292,1.2,-999.9,89,-99.99,,,-99.99,,2013-07-14 11:38:00,
2013-07-14 07:44:00,78.8,75.2,29.62,North,0,0.0,-999.9,89,-99.99,,,-99.99,,2013-07-14 11:44:00,
2013-07-14 07:50:00,78.8,75.2,29.62,North,0,0.0,-999.9,89,-99.99,,,-99.99,,2013-07-14 11:50:00,
2013-07-14 07:56:00,78.8,75.2,29.62,North,0,0.0,-999.9,89,-99.99,,,-99.99,,2013-07-14 11:56:00,
2013-07-14 08:02:00,78.8,75.2,29.62,South,180,1.2,-999.9,89,-99.99,,,-99.99,,2013-07-14 12:02:00,
2013-07-14 08:08:00,78.8,75.2,29.62,South,180,1.2,-999.9,89,-99.99,,,-99.99,,2013-07-14 12:08:00,
2013-07-14 08:14:00,78.8,75.2,29.62,West,281,1.2,-999.9,89,-99.99,,,-99.99,,2013-07-14 12:14:00,
2013-07-14 08:20:00,78.8,75.2,29.62,West,281,1.2,-999.9,89,-99.99,,,-99.99,,2013-07-14 12:20:00,
2013-07-14 08:26:00,78.8,73.4,29.62,NW,319,2.3,-999.9,83,-99.99,,,-99.99,,2013-07-14 12:26:00,
2013-07-14 08:32:00,78.8,73.4,29.62,NNW,346,1.2,-999.9,83,-99.99,,,-99.99,,2013-07-14 12:32:00,
2013-07-14 08:38:00,78.8,73.4,29.62,NNW,346,1.2,-999.9,83,-99.99,,,-99.99,,2013-07-14 12:38:00,
2013-07-14 08:44:00,78.8,73.4,29.62,North,0,0.0,-999.9,83,-99.99,,,-99.99,,2013-07-14 12:44:00,
2013-07-14 08:50:00,78.8,73.4,29.62,North,0,0.0,-999.9,83,-99.99,,,-99.99,,2013-07-14 12:50:00,
2013-07-14 08:56:00,80.6,73.4,29.61,NW,318,4.6,-999.9,79,-99.99,,,-99.99,,2013-07-14 12:56:00,
2013-07-14 09:02:00,82.4,73.4,29.60,WNW,297,5.8,-999.9,74,-99.99,,,-99.99,,2013-07-14 13:02:00,
2013-07-14 09:08:00,82.4,73.4,29.60,WNW,297,5.8,-999.9,74,-99.99,,,-99.99,,2013-07-14 13:08:00,
2013-07-14 09:14:00,82.4,73.4,29.59,NW,304,2.3,-999.9,74,-99.99,,,-99.99,,2013-07-14 13:14:00,
2013-07-14 09:20:00,82.4,73.4,29.59,NW,304,2.3,-999.9,74,-99.99,,,-99.99,,2013-07-14 13:20:00,
2013-07-14 09:26:00,82.4,73.4,29.58,West,273,1.2,-999.9,74,-99.99,,,-99.99,,2013-07-14 13:26:00,
2013-07-14 09:32:00,82.4,73.4,29.57,WNW,300,3.5,-999.9,74,-99.99,,,-99.99,,2013-07-14 13:32:00,
2013-07-14 09:38:00,82.4,73.4,29.57,WNW,300,3.5,-999.9,74,-99.99,,,-99.99,,2013-07-14 13:38:00,
2013-07-14 09:44:00,82.4,71.6,29.57,WNW,291,1.2,-999.9,70,-99.99,,,-99.99,,2013-07-14 13:44:00,
2013-07-14 09:50:00,82.4,71.6,29.57,WNW,291,1.2,-999.9,70,-99.99,,,-99.99,,2013-07-14 13:50:00,
2013-07-14 09:56:00,82.4,71.6,29.57,North,0,0.0,-999.9,70,-99.99,,,-99.99,,2013-07-14 13:56:00,
2013-07-14 10:12:00,84.2,73.4,29.57,NW,312,2.3,-999.9,70,-99.99,,,-99.99,,2013-07-14 14:12:00,
2013-07-14 10:18:00,84.2,73.4,29.57,NW,312,2.3,-999.9,70,-99.99,,,-99.99,,2013-07-14 14:18:00,
2013-07-14 10:24:00,84.2,73.4,29.57,WNW,285,4.6,-999.9,70,-99.99,,,-99.99,,2013-07-14 14:24:00,
2013-07-14 10:30:00,84.2,73.4,29.57,WNW,285,4.6,-999.9,70,-99.99,,,-99.99,,2013-07-14 14:30:00,
2013-07-14 10:36:00,86.0,73.4,29.57,NW,308,1.2,-999.9,66,-99.99,,,-99.99,,2013-07-14 14:36:00,
2013-07-14 10:42:00,86.0,71.6,29.56,North,0,0.0,-999.9,62,-99.99,,,-99.99,,2013-07-14 14:42:00,
2013-07-14 10:48:00,86.0,71.6,29.56,North,0,0.0,-999.9,62,-99.99,,,-99.99,,2013-07-14 14:48:00,
2013-07-14 10:54:00,87.8,73.4,29.55,NNW,330,0.0,-999.9,62,-99.99,,,-99.99,,2013-07-14 14:54:00,
2013-07-14 11:00:00,87.8,73.4,29.55,NNW,330,0.0,-999.9,62,-99.99,,,-99.99,,2013-07-14 15:00:00,
2013-07-14 11:06:00,89.6,71.6,29.54,WNW,293,1.2,-999.9,55,-99.99,,,-99.99,,2013-07-14 15:06:00,
2013-07-14 11:12:00,89.6,71.6,29.54,NNW,330,6.9,-999.9,55,-99.99,,,-99.99,,2013-07-14 15:12:00,
2013-07-14 11:18:00,89.6,71.6,29.54,NNW,330,6.9,-999.9,55,-99.99,,,-99.99,,2013-07-14 15:18:00,
2013-07-14 11:24:00,89.6,71.6,29.54,NNW,338,2.3,-999.9,55,-99.99,,,-99.99,,2013-07-14 15:24:00,
2013-07-14 11:30:00,89.6,71.6,29.54,NNW,338,2.3,-999.9,55,-99.99,,,-99.99,,2013-07-14 15:30:00,
2013-07-14 11:36:00,91.4,71.6,29.53,West,270,1.2,-999.9,52,-99.99,,,-99.99,,2013-07-14 15:36:00,
2013-07-14 11:42:00,89.6,71.6,29.53,NNW,327,5.8,-999.9,55,-99.99,,,-99.99,,2013-07-14 15:42:00,
2013-07-14 11:48:00,89.6,71.6,29.53,NNW,327,5.8,-999.9,55,-99.99,,,-99.99,,2013-07-14 15:48:00,
2013-07-14 11:54:00,91.4,69.8,29.52,North,0,0.0,-999.9,49,-99.99,,,-99.99,,2013-07-14 15:54:00,
2013-07-14 12:00:00,91.4,69.8,29.52,North,0,0.0,-999.9,49,-99.99,,,-99.99,,2013-07-14 16:00:00,
2013-07-14 12:06:00,91.4,69.8,29.52,North,0,0.0,-999.9,49,-99.99,,,-99.99,,2013-07-14 16:06:00,
2013-07-14 12:12:00,91.4,71.6,29.52,NNW,331,6.9,-999.9,52,-99.99,,,-99.99,,2013-07-14 16:12:00,
2013-07-14 12:18:00,91.4,71.6,29.52,NNW,331,6.9,-999.9,52,-99.99,,,-99.99,,2013-07-14 16:18:00,
2013-07-14 12:24:00,91.4,71.6,29.52,North,4,5.8,-999.9,52,-99.99,,,-99.99,,2013-07-14 16:24:00,
2013-07-14 12:30:00,91.4,71.6,29.52,North,4,5.8,-999.9,52,-99.99,,,-99.99,,2013-07-14 16:30:00,
2013-07-14 12:36:00,93.2,71.6,29.51,NW,322,2.3,-999.9,49,-99.99,,,-99.99,,2013-07-14 16:36:00,
2013-07-14 12:42:00,89.6,69.8,29.51,NNW,332,10.4,-999.9,52,-99.99,,,-99.99,,2013-07-14 16:42:00,
2013-07-14 12:48:00,89.6,69.8,29.51,NNW,332,10.4,-999.9,52,-99.99,,,-99.99,,2013-07-14 16:48:00,
2013-07-14 12:54:00,89.6,69.8,29.51,West,278,3.5,-999.9,52,-99.99,,,-99.99,,2013-07-14 16:54:00,
2013-07-14 13:00:00,89.6,69.8,29.51,West,278,3.5,-999.9,52,-99.99,,,-99.99,,2013-07-14 17:00:00,
2013-07-14 13:06:00,91.4,69.8,29.51,NNW,338,8.1,-999.9,49,-99.99,,,-99.99,,2013-07-14 17:06:00,
2013-07-14 13:12:00,91.4,69.8,29.51,WNW,299,3.5,-999.9,49,-99.99,,,-99.99,,2013-07-14 17:12:00,
2013-07-14 13:18:00,91.4,69.8,29.51,WNW,299,3.5,-999.9,49,-99.99,,,-99.99,,2013-07-14 17:18:00,
2013-07-14 13:24:00,89.6,68.0,29.51,NNW,343,6.9,-999.9,49,-99.99,,,-99.99,,2013-07-14 17:24:00,
2013-07-14 13:30:00,89.6,68.0,29.51,NNW,343,6.9,-999.9,49,-99.99,,,-99.99,,2013-07-14 17:30:00,
2013-07-14 13:36:00,93.2,68.0,29.51,NW,320,3.5,-999.9,44,-99.99,,,-99.99,,2013-07-14 17:36:00,
2013-07-14 13:42:00,89.6,68.0,29.51,NNW,328,9.2,-999.9,49,-99.99,,,-99.99,,2013-07-14 17:42:00,
2013-07-14 13:48:00,89.6,68.0,29.51,NNW,328,9.2,-999.9,49,-99.99,,,-99.99,,2013-07-14 17:48:00,
2013-07-14 13:54:00,91.4,69.8,29.51,WNW,292,3.5,-999.9,49,-99.99,,,-99.99,,2013-07-14 17:54:00,
2013-07-14 14:00:00,91.4,69.8,29.51,WNW,292,3.5,-999.9,49,-99.99,,,-99.99,,2013-07-14 18:00:00,
2013-07-14 14:06:00,93.2,69.8,29.50,NW,318,5.8,-999.9,46,-99.99,,,-99.99,,2013-07-14 18:06:00,
2013-07-14 14:12:00,93.2,69.8,29.50,NW,318,5.8,-999.9,46,-99.99,,,-99.99,,2013-07-14 18:12:00,
2013-07-14 14:18:00,93.2,69.8,29.50,NW,318,5.8,-999.9,46,-99.99,,,-99.99,,2013-07-14 18:18:00,
2013-07-14 14:24:00,93.2,69.8,29.50,NW,318,5.8,-999.9,46,-99.99,,,-99.99,,2013-07-14 18:24:00,
2013-07-14 14:30:00,93.2,69.8,29.50,NW,318,5.8,-999.9,46,-99.99,,,-99.99,,2013-07-14 18:30:00,
2013-07-14 14:36:00,93.2,69.8,29.50,NW,318,5.8,-999.9,46,-99.99,,,-99.99,,2013-07-14 18:36:00,
2013-07-14 14:42:00,95.0,68.0,29.49,NW,314,2.3,-999.9,41,-99.99,,,-99.99,,2013-07-14 18:42:00,
2013-07-14 14:48:00,95.0,68.0,29.49,NW,314,2.3,-999.9,41,-99.99,,,-99.99,,2013-07-14 18:48:00,
2013-07-14 14:54:00,96.8,68.0,29.49,NNW,331,1.2,-999.9,39,-99.99,,,-99.99,,2013-07-14 18:54:00,
2013-07-14 15:00:00,96.8,68.0,29.49,NNW,331,1.2,-999.9,39,-99.99,,,-99.99,,2013-07-14 19:00:00,
2013-07-14 15:06:00,96.8,68.0,29.48,NW,317,2.3,-999.9,39,-99.99,,,-99.99,,2013-07-14 19:06:00,
2013-07-14 15:12:00,96.8,66.2,29.48,NW,313,1.2,-999.9,37,-99.99,,,-99.99,,2013-07-14 19:12:00,
2013-07-14 15:18:00,96.8,66.2,29.48,NW,313,1.2,-999.9,37,-99.99,,,-99.99,,2013-07-14 19:18:00,
2013-07-14 15:24:00,96.8,66.2,29.48,NW,322,5.8,-999.9,37,-99.99,,,-99.99,,2013-07-14 19:24:00,
2013-07-14 15:30:00,96.8,66.2,29.48,NW,322,5.8,-999.9,37,-99.99,,,-99.99,,2013-07-14 19:30:00,
2013-07-14 15:36:00,98.6,66.2,29.47,NW,326,5.8,-999.9,35,-99.99,,,-99.99,,2013-07-14 19:36:00,
2013-07-14 15:42:00,98.6,66.2,29.47,NW,326,5.8,-999.9,35,-99.99,,,-99.99,,2013-07-14 19:42:00,
2013-07-14 15:48:00,98.6,66.2,29.47,NW,326,5.8,-999.9,35,-99.99,,,-99.99,,2013-07-14 19:48:00,
2013-07-14 15:54:00,96.8,68.0,29.46,North,0,0.0,-999.9,39,-99.99,,,-99.99,,2013-07-14 19:54:00,
2013-07-14 16:00:00,98.6,68.0,29.46,NW,313,0.0,-999.9,37,-99.99,,,-99.99,,2013-07-14 20:00:00,
2013-07-14 16:06:00,98.6,68.0,29.46,NW,313,0.0,-999.9,37,-99.99,,,-99.99,,2013-07-14 20:06:00,
2013-07-14 16:12:00,96.8,66.2,29.46,North,0,0.0,-999.9,37,-99.99,,,-99.99,,2013-07-14 20:12:00,
2013-07-14 16:18:00,96.8,66.2,29.46,North,0,0.0,-999.9,37,-99.99,,,-99.99,,2013-07-14 20:18:00,
2013-07-14 16:24:00,96.8,68.0,29.46,North,0,0.0,-999.9,39,-99.99,,,-99.99,,2013-07-14 20:24:00,
2013-07-14 16:30:00,96.8,68.0,29.46,North,0,0.0,-999.9,39,-99.99,,,-99.99,,2013-07-14 20:30:00,
2013-07-14 16:36:00,96.8,66.2,29.45,WNW,293,1.2,-999.9,37,-99.99,,,-99.99,,2013-07-14 20:36:00,
2013-07-14 16:42:00,96.8,66.2,29.45,NW,306,6.9,-999.9,37,-99.99,,,-99.99,,2013-07-14 20:42:00,
2013-07-14 16:48:00,96.8,66.2,29.45,NW,306,6.9,-999.9,37,-99.99,,,-99.99,,2013-07-14 20:48:00,
2013-07-14 16:54:00,95.0,68.0,29.45,West,281,0.0,-999.9,41,-99.99,,,-99.99,,2013-07-14 20:54:00,
2013-07-14 17:00:00,95.0,68.0,29.45,West,281,0.0,-999.9,41,-99.99,,,-99.99,,2013-07-14 21:00:00,
2013-07-14 17:06:00,96.8,68.0,29.45,NW,307,1.2,-999.9,39,-99.99,,,-99.99,,2013-07-14 21:06:00,
2013-07-14 17:12:00,95.0,66.2,29.44,WNW,289,1.2,-999.9,39,-99.99,,,-99.99,,2013-07-14 21:12:00,
2013-07-14 17:18:00,95.0,66.2,29.44,WNW,289,1.2,-999.9,39,-99.99,,,-99.99,,2013-07-14 21:18:00,
2013-07-14 17:24:00,93.2,66.2,29.44,NW,324,1.2,-999.9,41,-99.99,,,-99.99,,2013-07-14 21:24:00,
2013-07-14 17:30:00,93.2,66.2,29.44,NW,324,1.2,-999.9,41,-99.99,,,-99.99,,2013-07-14 21:30:00,
2013-07-14 17:36:00,93.2,68.0,29.44,NW,312,5.8,-999.9,44,-99.99,,,-99.99,,2013-07-14 21:36:00,
2013-07-14 17:42:00,93.2,68.0,29.44,NW,323,3.5,-999.9,44,-99.99,,,-99.99,,2013-07-14 21:42:00,
2013-07-14 17:48:00,93.2,68.0,29.44,NW,323,3.5,-999.9,44,-99.99,,,-99.99,,2013-07-14 21:48:00,
2013-07-14 17:54:00,93.2,66.2,29.44,WNW,296,3.5,-999.9,41,-99.99,,,-99.99,,2013-07-14 21:54:00,
2013-07-14 18:00:00,93.2,66.2,29.44,WNW,296,3.5,-999.9,41,-99.99,,,-99.99,,2013-07-14 22:00:00,
2013-07-14 18:06:00,93.2,68.0,29.44,NW,306,4.6,-999.9,44,-99.99,,,-99.99,,2013-07-14 22:06:00,
2013-07-14 18:12:00,93.2,66.2,29.44,NW,322,3.5,-999.9,41,-99.99,,,-99.99,,2013-07-14 22:12:00,
2013-07-14 18:18:00,93.2,66.2,29.44,NW,322,3.5,-999.9,41,-99.99,,,-99.99,,2013-07-14 22:18:00,
2013-07-14 18:24:00,93.2,68.0,29.45,WNW,282,0.0,-999.9,44,-99.99,,,-99.99,,2013-07-14 22:24:00,
2013-07-14 18:30:00,93.2,68.0,29.45,WNW,282,0.0,-999.9,44,-99.99,,,-99.99,,2013-07-14 22:30:00,
2013-07-14 18:36:00,93.2,66.2,29.44,NW,319,5.8,-999.9,41,-99.99,,,-99.99,,2013-07-14 22:36:00,
2013-07-14 18:42:00,93.2,66.2,29.44,WNW,302,3.5,-999.9,41,-99.99,,,-99.99,,2013-07-14 22:42:00,
2013-07-14 18:48:00,93.2,66.2,29.44,WNW,302,3.5,-999.9,41,-99.99,,,-99.99,,2013-07-14 22:48:00,
2013-07-14 18:54:00,93.2,68.0,29.44,NW,316,2.3,-999.9,44,-99.99,,,-99.99,,2013-07-14 22:54:00,
2013-07-14 19:00:00,93.2,68.0,29.44,NW,316,2.3,-999.9,44,-99.99,,,-99.99,,2013-07-14 23:00:00,
2013-07-14 19:06:00,93.2,68.0,29.44,NW,320,3.5,-999.9,44,-99.99,,,-99.99,,2013-07-14 23:06:00,
2013-07-14 19:12:00,93.2,68.0,29.44,NW,309,1.2,-999.9,44,-99.99,,,-99.99,,2013-07-14 23:12:00,
2013-07-14 19:18:00,93.2,68.0,29.44,NW,309,1.2,-999.9,44,-99.99,,,-99.99,,2013-07-14 23:18:00,
2013-07-14 19:24:00,91.4,66.2,29.45,West,267,2.3,-999.9,43,-99.99,,,-99.99,,2013-07-14 23:24:00,
2013-07-14 19:30:00,91.4,66.2,29.45,West,267,2.3,-999.9,43,-99.99,,,-99.99,,2013-07-14 23:30:00,
2013-07-14 19:36:00,91.4,66.2,29.45,West,278,3.5,-999.9,43,-99.99,,,-99.99,,2013-07-14 23:36:00,
2013-07-14 19:42:00,91.4,68.0,29.45,NW,315,1.2,-999.9,46,-99.99,,,-99.99,,2013-07-14 23:42:00,
2013-07-14 19:48:00,91.4,68.0,29.45,NW,315,1.2,-999.9,46,-99.99,,,-99.99,,2013-07-14 23:48:00,
2013-07-14 19:54:00,91.4,68.0,29.45,North,0,0.0,-999.9,46,-99.99,,,-99.99,,2013-07-14 23:54:00,
2013-07-14 20:00:00,91.4,68.0,29.45,North,0,0.0,-999.9,46,-99.99,,,-99.99,,2013-07-15 00:00:00,
2013-07-14 20:06:00,89.6,66.2,29.45,WNW,295,1.2,-999.9,46,-99.99,,,-99.99,,2013-07-15 00:06:00,
2013-07-14 21:02:00,87.8,68.0,29.48,North,0,0.0,-999.9,52,-99.99,,,-99.99,,2013-07-15 01:02:00,
2013-07-14 21:08:00,87.8,68.0,29.48,North,0,0.0,-999.9,52,-99.99,,,-99.99,,2013-07-15 01:08:00,
2013-07-14 21:14:00,87.8,68.0,29.48,North,0,0.0,-999.9,52,-99.99,,,-99.99,,2013-07-15 01:14:00,
2013-07-14 21:20:00,87.8,68.0,29.48,North,0,0.0,-999.9,52,-99.99,,,-99.99,,2013-07-15 01:20:00,
2013-07-14 21:26:00,87.8,68.0,29.48,South,171,0.0,-999.9,52,-99.99,,,-99.99,,2013-07-15 01:26:00,
2013-07-14 21:32:00,87.8,68.0,29.49,SSE,164,0.0,-999.9,52,-99.99,,,-99.99,,2013-07-15 01:32:00,
2013-07-14 21:38:00,87.8,68.0,29.49,SSE,164,0.0,-999.9,52,-99.99,,,-99.99,,2013-07-15 01:38:00,
2013-07-14 21:44:00,87.8,69.8,29.49,North,0,0.0,-999.9,55,-99.99,,,-99.99,,2013-07-15 01:44:00,
2013-07-14 21:50:00,87.8,69.8,29.49,North,0,0.0,-999.9,55,-99.99,,,-99.99,,2013-07-15 01:50:00,
2013-07-14 21:56:00,87.8,69.8,29.49,North,0,0.0,-999.9,55,-99.99,,,-99.99,,2013-07-15 01:56:00,
2013-07-14 22:02:00,87.8,69.8,29.49,SW,230,1.2,-999.9,55,-99.99,,,-99.99,,2013-07-15 02:02:00,
2013-07-14 22:08:00,87.8,69.8,29.49,SW,230,1.2,-999.9,55,-99.99,,,-99.99,,2013-07-15 02:08:00,
2013-07-14 22:14:00,86.0,68.0,29.49,WSW,243,2.3,-999.9,55,-99.99,,,-99.99,,2013-07-15 02:14:00,
2013-07-14 22:20:00,86.0,68.0,29.49,WSW,243,2.3,-999.9,55,-99.99,,,-99.99,,2013-07-15 02:20:00,
2013-07-14 22:26:00,86.0,68.0,29.49,North,0,0.0,-999.9,55,-99.99,,,-99.99,,2013-07-15 02:26:00,
2013-07-14 22:32:00,86.0,68.0,29.49,West,267,2.3,-999.9,55,-99.99,,,-99.99,,2013-07-15 02:32:00,
2013-07-14 22:38:00,86.0,68.0,29.49,West,267,2.3,-999.9,55,-99.99,,,-99.99,,2013-07-15 02:38:00,
2013-07-14 22:44:00,86.0,68.0,29.49,WSW,254,2.3,-999.9,55,-99.99,,,-99.99,,2013-07-15 02:44:00,
2013-07-14 22:50:00,86.0,68.0,29.49,WSW,254,2.3,-999.9,55,-99.99,,,-99.99,,2013-07-15 02:50:00,
2013-07-14 22:56:00,86.0,68.0,29.49,WSW,248,1.2,-999.9,55,-99.99,,,-99.99,,2013-07-15 02:56:00,
2013-07-14 23:02:00,86.0,68.0,29.49,North,354,0.0,-999.9,55,-99.99,,,-99.99,,2013-07-15 03:02:00,
2013-07-14 23:08:00,86.0,68.0,29.49,North,354,0.0,-999.9,55,-99.99,,,-99.99,,2013-07-15 03:08:00,
2013-07-14 23:14:00,86.0,68.0,29.49,West,262,2.3,-999.9,55,-99.99,,,-99.99,,2013-07-15 03:14:00,
2013-07-14 23:20:00,86.0,68.0,29.49,West,262,2.3,-999.9,55,-99.99,,,-99.99,,2013-07-15 03:20:00,
2013-07-14 23:26:00,86.0,68.0,29.49,South,188,1.2,-999.9,55,-99.99,,,-99.99,,2013-07-15 03:26:00,
2013-07-14 23:32:00,86.0,69.8,29.49,SW,228,0.0,-999.9,58,-99.99,,,-99.99,,2013-07-15 03:32:00,
2013-07-14 23:38:00,86.0,69.8,29.49,SW,228,0.0,-999.9,58,-99.99,,,-99.99,,2013-07-15 03:38:00,
2013-07-14 23:44:00,86.0,69.8,29.49,North,1,0.0,-999.9,58,-99.99,,,-99.99,,2013-07-15 03:44:00,
2013-07-14 23:50:00,86.0,69.8,29.49,North,1,0.0,-999.9,58,-99.99,,,-99.99,,2013-07-15 03:50:00,
2013-07-14 23:56:00,84.2,68.0,29.49,SSW,197,1.2,-999.9,58,-99.99,,,-99.99,,2013-07-15 03:56:00,